Time;durP1;ratioP1;P1;durP2;ratioP2;P2;SDS_P1;SDS_P2;PMS_P1;PMS_P2;Temp;Humidity;BMP_temperature;BMP_pressure;BME280_temperature;BME280_humidity;BME280_pressure;Samples;Min_cycle;Max_cycle;Signal;HPM_P1;HPM_P2
2024/01/07 00:01:16;;;;;;;19.70;11.90;;;;;;;-5.88;74.99;100688.44;111260;242;40044;-71
2024/01/07 00:04:09;;;;;;;17.00;10.70;;;;;;;-5.92;75.09;100686.30;111050;242;38435;-70
2024/01/07 00:06:43;;;;;;;18.20;11.00;;;;;;;-5.92;75.33;100685.95;111268;242;38281;-68
2024/01/07 00:09:21;;;;;;;16.90;11.50;;;;;;;-5.88;75.36;100683.17;111236;242;39106;-68
2024/01/07 00:12:06;;;;;;;17.60;12.00;;;;;;;-5.86;75.54;100685.15;111065;242;40194;-69
2024/01/07 00:14:47;;;;;;;20.40;11.90;;;;;;;-5.82;75.50;100683.55;111236;242;39784;-68
2024/01/07 00:17:24;;;;;;;21.30;13.20;;;;;;;-5.85;75.52;100682.59;111261;242;38920;-70
2024/01/07 00:19:58;;;;;;;18.50;11.90;;;;;;;-5.91;75.69;100684.61;111256;242;38399;-70
2024/01/07 00:22:32;;;;;;;19.20;11.20;;;;;;;-5.94;75.80;100686.07;111220;242;38280;-70
2024/01/07 00:25:05;;;;;;;20.80;12.50;;;;;;;-5.97;75.92;100685.45;111225;242;38420;-70
2024/01/07 00:27:40;;;;;;;20.80;12.70;;;;;;;-6.04;75.87;100685.06;111240;242;38328;-70
2024/01/07 00:30:15;;;;;;;18.00;11.60;;;;;;;-6.07;75.96;100690.73;111243;242;38648;-70
2024/01/07 00:32:51;;;;;;;14.00;10.30;;;;;;;-6.09;76.23;100691.66;111260;242;38434;-70
2024/01/07 00:35:24;;;;;;;17.70;11.20;;;;;;;-6.06;76.29;100692.10;111268;242;39535;-70
2024/01/07 00:37:59;;;;;;;17.40;11.70;;;;;;;-6.03;76.49;100698.83;111115;242;174256;-69
2024/01/07 00:40:33;;;;;;;18.70;12.30;;;;;;;-6.00;76.50;100699.45;111302;242;38354;-69
2024/01/07 00:43:06;;;;;;;19.70;11.80;;;;;;;-5.98;76.48;100702.76;111223;242;38901;-69
2024/01/07 00:45:40;;;;;;;19.50;12.30;;;;;;;-6.00;76.52;100703.36;111268;242;38590;-69
2024/01/07 00:48:14;;;;;;;18.10;12.60;;;;;;;-6.03;76.52;100700.22;111221;242;38309;-69
2024/01/07 00:50:49;;;;;;;19.40;12.60;;;;;;;-6.05;76.57;100702.16;111256;242;38610;-70
2024/01/07 00:53:23;;;;;;;17.20;12.00;;;;;;;-6.10;76.55;100705.23;111223;242;38269;-70
2024/01/07 00:55:57;;;;;;;16.20;10.70;;;;;;;-6.13;76.61;100709.70;111066;242;38277;-69
2024/01/07 00:58:31;;;;;;;17.40;11.80;;;;;;;-6.12;76.96;100708.88;111268;242;39588;-69
2024/01/07 01:01:05;;;;;;;14.10;10.40;;;;;;;-6.09;76.95;100711.05;111146;242;173567;-69
2024/01/07 01:03:38;;;;;;;15.40;10.10;;;;;;;-6.06;77.15;100711.49;111236;242;38332;-69
2024/01/07 01:06:12;;;;;;;15.00;11.00;;;;;;;-6.01;77.18;100711.99;111221;242;38404;-70
2024/01/07 01:08:45;;;;;;;14.90;10.80;;;;;;;-6.00;77.21;100712.21;111252;242;38477;-70
2024/01/07 01:11:19;;;;;;;17.50;10.70;;;;;;;-5.99;77.10;100719.20;111244;242;38328;-69
2024/01/07 01:13:53;;;;;;;13.50;10.30;;;;;;;-6.00;77.09;100720.53;111247;242;38396;-69
2024/01/07 01:16:27;;;;;;;15.50;10.60;;;;;;;-6.03;77.15;100716.18;111269;242;38421;-70
2024/01/07 01:19:00;;;;;;;11.90;9.10;;;;;;;-6.06;77.15;100717.27;111214;242;39572;-70
2024/01/07 01:21:34;;;;;;;9.60;8.10;;;;;;;-6.05;77.14;100717.27;111118;242;176455;-70
2024/01/07 01:24:08;;;;;;;10.20;7.80;;;;;;;-6.02;77.06;100720.77;111240;242;38555;-71
2024/01/07 01:26:41;;;;;;;10.10;7.90;;;;;;;-5.98;77.09;100719.23;111290;242;38610;-69
2024/01/07 01:29:15;;;;;;;11.40;8.50;;;;;;;-5.93;77.11;100715.83;111240;242;39289;-69
2024/01/07 01:31:49;;;;;;;11.00;8.60;;;;;;;-5.89;77.07;100715.27;111269;242;38446;-70
2024/01/07 01:34:23;;;;;;;12.60;9.00;;;;;;;-5.86;77.21;100715.86;111257;242;38425;-70
2024/01/07 01:36:56;;;;;;;13.20;8.60;;;;;;;-5.86;77.36;100717.76;111278;242;38284;-70
2024/01/07 01:39:36;;;;;;;12.60;9.10;;;;;;;-5.88;77.43;100721.25;111246;242;38388;-70
2024/01/07 01:42:13;;;;;;;11.90;9.80;;;;;;;-5.92;77.40;100719.25;111256;242;38250;-70
2024/01/07 01:44:47;;;;;;;13.60;9.00;;;;;;;-5.95;77.51;100722.20;111279;242;38779;-70
2024/01/07 01:47:21;;;;;;;10.20;8.10;;;;;;;-5.96;77.62;100718.27;111275;242;38468;-70
2024/01/07 01:49:55;;;;;;;10.20;7.70;;;;;;;-5.94;77.72;100712.56;111256;242;38452;-69
2024/01/07 01:52:29;;;;;;;9.90;7.70;;;;;;;-5.90;77.65;100718.96;111272;242;38797;-69
2024/01/07 01:55:02;;;;;;;11.70;8.20;;;;;;;-5.87;77.75;100713.27;111294;242;39410;-69
2024/01/07 01:57:39;;;;;;;12.60;8.50;;;;;;;-5.86;77.68;100709.39;111160;242;176384;-69
2024/01/07 02:00:15;;;;;;;12.90;9.00;;;;;;;-5.84;77.66;100709.65;111214;242;38596;-69
2024/01/07 02:02:50;;;;;;;11.40;8.50;;;;;;;-5.86;77.62;100713.81;111159;242;38391;-69
2024/01/07 02:05:24;;;;;;;14.30;9.20;;;;;;;-5.90;77.54;100714.38;111052;243;173586;-69
2024/01/07 02:08:01;;;;;;;12.60;9.30;;;;;;;-5.91;77.64;100717.24;111086;243;39469;-69
2024/01/07 02:10:36;;;;;;;13.80;9.00;;;;;;;-5.94;77.62;100712.08;111133;243;39429;-70
2024/01/07 02:13:10;;;;;;;14.90;9.70;;;;;;;-5.96;77.50;100714.70;111091;243;39450;-70
2024/01/07 02:15:47;;;;;;;10.20;7.90;;;;;;;-5.92;77.47;100714.48;111148;244;39308;-69
2024/01/07 02:18:21;;;;;;;12.50;8.50;;;;;;;-5.88;77.28;100711.36;111103;243;38552;-70
2024/01/07 02:20:55;;;;;;;13.70;8.60;;;;;;;-5.85;77.37;100713.88;111153;243;38865;-70
2024/01/07 02:23:31;;;;;;;11.40;8.60;;;;;;;-5.84;77.05;100715.93;111088;243;38720;-70
2024/01/07 02:26:04;;;;;;;12.20;9.20;;;;;;;-5.87;77.04;100713.79;111144;243;38673;-70
2024/01/07 02:28:38;;;;;;;12.90;8.90;;;;;;;-5.91;77.04;100716.23;111112;243;38385;-70
2024/01/07 02:31:12;;;;;;;15.70;10.40;;;;;;;-5.94;76.94;100715.63;111132;244;39160;-69
2024/01/07 02:33:48;;;;;;;14.50;9.90;;;;;;;-5.98;76.82;100721.96;111098;244;38605;-70
2024/01/07 02:36:21;;;;;;;14.40;10.50;;;;;;;-6.03;76.59;100724.16;111111;243;38663;-70
2024/01/07 02:38:56;;;;;;;14.10;10.20;;;;;;;-6.09;76.69;100727.51;110976;243;176351;-69
2024/01/07 02:41:34;;;;;;;15.20;10.80;;;;;;;-6.12;76.71;100729.27;110975;243;176313;-68
2024/01/07 02:44:14;;;;;;;12.00;8.90;;;;;;;-6.11;76.77;100725.59;111135;243;38267;-68
2024/01/07 02:46:49;;;;;;;12.10;9.20;;;;;;;-6.06;76.73;100726.58;110960;244;39623;-69
2024/01/07 02:49:30;;;;;;;12.20;9.40;;;;;;;-6.04;76.87;100725.65;111091;243;37983;-68
2024/01/07 02:52:07;;;;;;;13.40;9.70;;;;;;;-6.03;76.81;100727.73;111063;244;38261;-68
2024/01/07 02:54:44;;;;;;;14.60;10.10;;;;;;;-6.01;76.76;100720.98;111165;243;38491;-68
2024/01/07 02:57:25;;;;;;;13.90;9.90;;;;;;;-6.03;76.66;100718.21;111106;243;38375;-69
2024/01/07 03:00:05;;;;;;;17.20;11.50;;;;;;;-6.09;76.53;100713.07;111150;243;38555;-69
2024/01/07 03:02:42;;;;;;;15.20;10.50;;;;;;;-6.12;76.60;100718.91;111106;243;38476;-69
2024/01/07 03:05:20;;;;;;;14.90;10.10;;;;;;;-6.14;76.50;100717.14;111134;243;38270;-69
2024/01/07 03:07:59;;;;;;;15.40;10.50;;;;;;;-6.23;76.37;100721.58;111128;243;38867;-69
2024/01/07 03:10:42;;;;;;;14.50;10.00;;;;;;;-6.31;76.25;100718.94;111121;243;38447;-69
2024/01/07 03:13:21;;;;;;;11.40;9.60;;;;;;;-6.29;76.62;100716.48;111118;244;39005;-69
2024/01/07 03:16:00;;;;;;;12.70;9.00;;;;;;;-6.24;76.60;100724.62;111104;244;38558;-69
2024/01/07 03:18:34;;;;;;;13.50;9.70;;;;;;;-6.20;76.49;100727.46;111159;243;38807;-70
2024/01/07 03:21:10;;;;;;;13.90;10.80;;;;;;;-6.20;76.51;100728.98;111153;243;38478;-69
2024/01/07 03:23:51;;;;;;;12.50;9.50;;;;;;;-6.19;76.63;100729.05;111099;243;39757;-69
2024/01/07 03:26:25;;;;;;;12.70;9.70;;;;;;;-6.20;76.44;100728.13;111130;243;38919;-69
2024/01/07 03:28:59;;;;;;;15.80;10.90;;;;;;;-6.25;76.46;100727.27;111112;243;38223;-70
2024/01/07 03:31:36;;;;;;;14.70;10.00;;;;;;;-6.30;76.43;100728.84;111102;243;38255;-69
2024/01/07 03:34:09;;;;;;;15.00;10.80;;;;;;;-6.34;76.45;100732.57;111125;243;38246;-69
2024/01/07 03:36:47;;;;;;;13.80;10.00;;;;;;;-6.41;76.17;100730.44;111121;243;38326;-69
2024/01/07 03:39:25;;;;;;;11.20;8.90;;;;;;;-6.43;76.41;100726.48;111081;243;38413;-69
2024/01/07 03:42:11;;;;;;;11.30;8.40;;;;;;;-6.38;76.45;100724.45;111124;243;39941;-69
2024/01/07 03:44:46;;;;;;;12.80;10.10;;;;;;;-6.34;76.19;100732.59;111149;243;38321;-69
2024/01/07 03:47:20;;;;;;;12.70;9.20;;;;;;;-6.35;76.23;100728.83;111144;243;38328;-70
2024/01/07 03:49:54;;;;;;;12.70;9.00;;;;;;;-6.32;76.43;100729.77;111144;243;38284;-70
2024/01/07 03:52:28;;;;;;;12.30;9.10;;;;;;;-6.29;76.33;100733.27;111108;244;38721;-70
2024/01/07 03:55:02;;;;;;;12.70;10.00;;;;;;;-6.30;76.31;100736.31;111110;243;38317;-69
2024/01/07 03:57:36;;;;;;;13.00;9.70;;;;;;;-6.33;75.87;100738.20;111121;243;38301;-69
2024/01/07 04:00:13;;;;;;;13.80;10.20;;;;;;;-6.44;75.75;100736.61;111151;244;38277;-69
2024/01/07 04:02:46;;;;;;;13.10;10.10;;;;;;;-6.50;75.84;100741.48;111138;243;38259;-69
2024/01/07 04:05:20;;;;;;;14.20;10.20;;;;;;;-6.56;75.90;100742.61;111089;244;38327;-69
2024/01/07 04:07:54;;;;;;;13.70;9.00;;;;;;;-6.58;76.08;100745.13;111093;243;38547;-69
2024/01/07 04:10:29;;;;;;;12.20;8.50;;;;;;;-6.55;76.06;100746.23;111141;243;38740;-69
2024/01/07 04:13:07;;;;;;;11.30;8.60;;;;;;;-6.55;75.85;100740.80;110946;244;38422;-69
2024/01/07 04:15:43;;;;;;;12.60;8.70;;;;;;;-6.57;75.79;100742.75;110848;244;176336;-69
2024/01/07 04:18:17;;;;;;;12.30;9.00;;;;;;;-6.57;75.96;100740.58;111073;243;38313;-70
2024/01/07 04:20:53;;;;;;;11.40;9.30;;;;;;;-6.55;76.16;100738.77;111147;244;38919;-68
2024/01/07 04:23:33;;;;;;;12.20;9.20;;;;;;;-6.56;76.01;100739.58;111094;243;38495;-68
2024/01/07 04:26:16;;;;;;;14.80;9.50;;;;;;;-6.60;75.84;100741.66;111125;243;38331;-69
2024/01/07 04:28:51;;;;;;;15.30;10.10;;;;;;;-6.63;75.93;100743.08;111106;243;38903;-69
2024/01/07 04:31:29;;;;;;;14.40;9.70;;;;;;;-6.68;75.87;100743.03;111133;243;39688;-68
2024/01/07 04:34:07;;;;;;;11.40;8.80;;;;;;;-6.75;75.83;100744.48;111108;244;39999;-69
2024/01/07 04:36:41;;;;;;;13.10;9.20;;;;;;;-6.77;75.80;100740.68;111116;243;39219;-70
2024/01/07 04:39:15;;;;;;;9.60;7.80;;;;;;;-6.73;76.02;100739.79;111192;243;38347;-70
2024/01/07 04:41:49;;;;;;;10.90;7.80;;;;;;;-6.67;76.18;100740.70;111157;243;38612;-70
2024/01/07 04:44:23;;;;;;;11.80;7.90;;;;;;;-6.60;76.33;100746.06;111159;243;39556;-70
2024/01/07 04:46:57;;;;;;;12.60;9.10;;;;;;;-6.57;76.03;100747.19;111180;243;38688;-70
2024/01/07 04:49:31;;;;;;;11.60;8.30;;;;;;;-6.57;75.86;100746.34;111155;243;39604;-70
2024/01/07 04:52:08;;;;;;;12.30;8.90;;;;;;;-6.61;75.79;100745.33;111122;243;39621;-69
2024/01/07 04:54:42;;;;;;;15.00;9.60;;;;;;;-6.67;75.87;100745.80;111125;243;38287;-69
2024/01/07 04:57:16;;;;;;;12.90;9.20;;;;;;;-6.70;75.85;100748.20;111116;243;38329;-69
2024/01/07 04:59:50;;;;;;;12.40;9.10;;;;;;;-6.71;76.24;100757.16;111150;244;38484;-68
2024/01/07 05:02:24;;;;;;;13.80;9.30;;;;;;;-6.77;75.98;100755.25;111142;243;38960;-69
2024/01/07 05:04:58;;;;;;;10.60;8.50;;;;;;;-6.77;76.12;100753.41;111130;243;38527;-69
2024/01/07 05:07:31;;;;;;;10.20;8.70;;;;;;;-6.73;75.95;100760.32;111160;244;39559;-70
2024/01/07 05:10:07;;;;;;;10.40;8.00;;;;;;;-6.69;76.07;100759.97;111143;243;38328;-69
2024/01/07 05:12:41;;;;;;;10.70;7.90;;;;;;;-6.62;76.25;100759.73;111135;244;38357;-69
2024/01/07 05:15:15;;;;;;;11.80;8.70;;;;;;;-6.61;75.93;100762.48;111082;243;38326;-68
2024/01/07 05:17:49;;;;;;;11.70;8.30;;;;;;;-6.61;75.90;100764.83;111093;243;38371;-69
2024/01/07 05:20:26;;;;;;;13.30;9.00;;;;;;;-6.63;75.58;100766.48;111151;243;38880;-69
2024/01/07 05:23:02;;;;;;;12.10;9.60;;;;;;;-6.67;75.58;100768.17;111104;243;38432;-68
2024/01/07 05:25:45;;;;;;;12.20;9.10;;;;;;;-6.71;75.44;100767.52;111109;243;38311;-68
2024/01/07 05:28:24;;;;;;;12.40;9.50;;;;;;;-6.78;75.23;100767.11;111103;243;39346;-69
2024/01/07 05:30:58;;;;;;;14.50;9.50;;;;;;;-6.87;75.40;100765.58;111105;243;38602;-70
2024/01/07 05:33:32;;;;;;;11.50;9.20;;;;;;;-6.90;75.39;100763.73;111082;243;39612;-70
2024/01/07 05:36:08;;;;;;;10.50;8.10;;;;;;;-6.89;75.27;100763.46;111098;243;38801;-70
2024/01/07 05:38:43;;;;;;;10.60;7.80;;;;;;;-6.85;75.47;100765.15;111084;243;38506;-70
2024/01/07 05:41:17;;;;;;;9.20;7.30;;;;;;;-6.79;75.37;100765.73;111089;243;38273;-69
2024/01/07 05:43:53;;;;;;;10.70;7.70;;;;;;;-6.75;75.14;100768.90;111089;243;39273;-69
2024/01/07 05:46:31;;;;;;;8.40;6.70;;;;;;;-6.69;75.17;100772.34;111128;243;38255;-69
2024/01/07 05:49:05;;;;;;;10.10;6.90;;;;;;;-6.61;75.16;100775.52;111063;244;38883;-69
2024/01/07 05:51:43;;;;;;;8.90;6.80;;;;;;;-6.53;75.09;100781.62;111091;243;38403;-69
2024/01/07 05:54:19;;;;;;;9.20;7.40;;;;;;;-6.42;75.04;100777.27;111159;243;38703;-68
2024/01/07 05:56:58;;;;;;;9.50;7.40;;;;;;;-6.32;75.05;100774.05;110524;243;614507;-69
2024/01/07 05:59:36;;;;;;;9.60;7.50;;;;;;;-6.20;75.21;100773.30;110978;244;38466;-69
2024/01/07 06:02:13;;;;;;;9.50;7.90;;;;;;;-6.17;74.59;100774.10;110950;244;38273;-68
2024/01/07 06:04:49;;;;;;;10.70;7.60;;;;;;;-6.19;74.47;100771.99;110881;244;176031;-69
2024/01/07 06:07:26;;;;;;;12.20;9.10;;;;;;;-6.25;74.23;100772.12;110947;244;38288;-69
2024/01/07 06:10:05;;;;;;;12.50;8.80;;;;;;;-6.35;74.14;100776.52;110970;244;39804;-69
2024/01/07 06:12:42;;;;;;;11.60;8.20;;;;;;;-6.40;74.20;100782.43;110953;244;39253;-70
2024/01/07 06:15:21;;;;;;;11.50;9.10;;;;;;;-6.47;74.36;100779.63;110934;244;38490;-70
2024/01/07 06:17:55;;;;;;;11.30;9.10;;;;;;;-6.53;74.41;100784.84;110975;244;38442;-70
2024/01/07 06:20:29;;;;;;;11.40;8.60;;;;;;;-6.62;74.45;100781.27;110992;244;38276;-69
2024/01/07 06:23:03;;;;;;;12.00;9.10;;;;;;;-6.71;74.54;100781.79;110979;244;38684;-69
2024/01/07 06:25:37;;;;;;;12.20;9.70;;;;;;;-6.76;74.72;100781.92;111001;244;38563;-69
2024/01/07 06:28:11;;;;;;;10.70;8.50;;;;;;;-6.78;74.69;100785.24;110905;244;39403;-70
2024/01/07 06:30:45;;;;;;;11.40;7.40;;;;;;;-6.77;74.90;100787.84;111000;244;38397;-69
2024/01/07 06:33:20;;;;;;;9.80;7.30;;;;;;;-6.72;75.13;100791.07;111003;244;38476;-69
2024/01/07 06:35:54;;;;;;;10.30;7.10;;;;;;;-6.69;74.87;100790.65;110918;244;38666;-69
2024/01/07 06:38:28;;;;;;;12.50;7.60;;;;;;;-6.66;74.82;100793.83;110982;244;38390;-69
2024/01/07 06:41:04;;;;;;;10.10;7.30;;;;;;;-6.63;74.88;100798.20;110981;244;38329;-70
2024/01/07 06:43:38;;;;;;;10.90;6.60;;;;;;;-6.49;75.25;100804.83;110982;244;38417;-70
2024/01/07 06:46:12;;;;;;;11.30;8.10;;;;;;;-6.33;75.24;100807.84;110978;244;39194;-69
2024/01/07 06:48:49;;;;;;;10.80;7.90;;;;;;;-6.24;74.77;100809.51;110986;244;38345;-69
2024/01/07 06:51:23;;;;;;;10.40;7.80;;;;;;;-6.19;74.63;100813.59;110932;244;38281;-69
2024/01/07 06:53:57;;;;;;;10.50;7.50;;;;;;;-6.16;74.39;100817.27;110958;244;38368;-69
2024/01/07 07:00:22;;;;;;;10.60;8.00;;;;;;;-6.30;73.86;100825.23;111203;239;41416;-67
2024/01/07 07:02:58;;;;;;;12.50;9.10;;;;;;;-6.42;73.69;100828.51;111072;242;38691;-71
2024/01/07 07:05:36;;;;;;;10.80;8.90;;;;;;;-6.51;73.79;100833.10;111230;242;38373;-68
2024/01/07 07:08:15;;;;;;;11.80;9.30;;;;;;;-6.58;73.73;100832.82;111241;242;38622;-69
2024/01/07 07:10:53;;;;;;;11.50;9.20;;;;;;;-6.66;74.03;100828.80;111249;242;38345;-69
2024/01/07 07:13:31;;;;;;;14.30;9.20;;;;;;;-6.70;74.21;100830.34;111243;242;38397;-69
2024/01/07 07:16:10;;;;;;;12.60;9.20;;;;;;;-6.72;74.43;100830.25;111253;242;38651;-69
2024/01/07 07:18:48;;;;;;;12.00;8.60;;;;;;;-6.76;74.17;100832.46;111244;242;38628;-69
2024/01/07 07:21:28;;;;;;;10.40;8.00;;;;;;;-6.78;74.36;100829.54;111261;242;38909;-69
2024/01/07 07:24:05;;;;;;;11.40;8.70;;;;;;;-6.72;74.40;100836.34;111224;242;38297;-69
2024/01/07 07:26:43;;;;;;;9.50;7.50;;;;;;;-6.64;74.45;100837.34;111073;242;38533;-68
2024/01/07 07:29:23;;;;;;;9.30;7.20;;;;;;;-6.60;74.45;100840.59;111236;242;38322;-68
2024/01/07 07:32:01;;;;;;;9.40;7.00;;;;;;;-6.52;74.44;100839.19;111070;242;38261;-68
2024/01/07 07:34:38;;;;;;;9.10;6.90;;;;;;;-6.42;74.62;100839.05;111225;242;38255;-69
2024/01/07 07:37:15;;;;;;;8.80;6.80;;;;;;;-6.29;74.74;100839.36;111320;242;38221;-70
2024/01/07 07:39:54;;;;;;;11.20;7.90;;;;;;;-6.15;74.62;100842.27;111260;242;38225;-69
2024/01/07 07:42:28;;;;;;;11.40;7.80;;;;;;;-6.08;74.05;100845.77;111287;242;38307;-69
2024/01/07 07:45:02;;;;;;;12.40;9.00;;;;;;;-6.06;73.78;100847.17;111270;242;38243;-69
2024/01/07 07:47:37;;;;;;;14.30;9.90;;;;;;;-6.09;73.78;100851.83;111248;242;38548;-69
2024/01/07 07:50:12;;;;;;;13.10;9.10;;;;;;;-6.13;73.61;100853.02;111251;242;38322;-69
2024/01/07 07:52:47;;;;;;;11.20;8.10;;;;;;;-6.15;73.90;100852.12;111307;242;38618;-69
2024/01/07 07:55:21;;;;;;;12.60;8.70;;;;;;;-6.14;73.95;100851.97;111245;242;38619;-69
2024/01/07 07:57:54;;;;;;;11.50;8.50;;;;;;;-6.16;73.83;100852.41;111290;242;38349;-69
2024/01/07 08:00:29;;;;;;;10.70;8.90;;;;;;;-6.21;73.76;100852.91;111246;241;38457;-70
2024/01/07 08:03:02;;;;;;;16.60;11.30;;;;;;;-6.23;73.78;100856.57;111359;241;38355;-70
2024/01/07 08:05:37;;;;;;;12.20;9.40;;;;;;;-6.25;74.03;100858.52;111322;241;39132;-70
2024/01/07 08:08:11;;;;;;;13.20;9.00;;;;;;;-6.28;73.93;100857.41;111307;241;39258;-70
2024/01/07 08:10:45;;;;;;;12.60;9.00;;;;;;;-6.30;74.06;100857.85;111344;241;38331;-70
2024/01/07 08:13:19;;;;;;;14.50;9.50;;;;;;;-6.33;73.90;100860.46;111307;241;38307;-70
2024/01/07 08:15:54;;;;;;;10.70;8.30;;;;;;;-6.33;74.01;100858.73;111331;241;38352;-70
2024/01/07 08:18:28;;;;;;;11.50;7.10;;;;;;;-6.30;73.98;100866.52;111144;241;175293;-70
2024/01/07 08:21:02;;;;;;;8.80;7.50;;;;;;;-6.23;74.00;100866.59;111282;241;38286;-70
2024/01/07 08:23:36;;;;;;;9.20;7.80;;;;;;;-6.16;74.25;100872.43;111315;241;38530;-70
2024/01/07 08:26:10;;;;;;;10.60;8.10;;;;;;;-6.09;74.06;100874.05;111315;241;38307;-70
2024/01/07 08:28:43;;;;;;;11.10;8.40;;;;;;;-6.09;73.51;100878.50;111255;241;38688;-69
2024/01/07 08:31:25;;;;;;;10.20;8.10;;;;;;;-6.11;73.21;100883.33;111159;241;176326;-69
2024/01/07 08:34:03;;;;;;;10.10;8.80;;;;;;;-6.17;73.25;100879.20;111287;241;38399;-69
2024/01/07 08:36:40;;;;;;;13.20;8.40;;;;;;;-6.18;73.47;100883.75;111291;241;38306;-68
2024/01/07 08:39:21;;;;;;;12.90;9.10;;;;;;;-6.20;73.50;100884.38;111361;241;38605;-69
2024/01/07 08:42:00;;;;;;;12.20;9.40;;;;;;;-6.22;73.45;100883.09;111292;241;38473;-68
2024/01/07 08:44:39;;;;;;;13.60;8.90;;;;;;;-6.25;73.58;100880.94;111323;241;38446;-68
2024/01/07 08:47:15;;;;;;;11.70;8.90;;;;;;;-6.27;73.69;100883.75;111337;241;38438;-68
2024/01/07 08:49:49;;;;;;;10.00;7.40;;;;;;;-6.22;73.97;100883.41;111319;241;38266;-68
2024/01/07 08:52:31;;;;;;;8.90;7.20;;;;;;;-6.17;73.66;100886.16;111292;241;38378;-68
2024/01/07 08:55:10;;;;;;;9.90;7.20;;;;;;;-6.09;73.71;100886.14;111272;241;38369;-69
2024/01/07 08:57:49;;;;;;;10.30;7.10;;;;;;;-5.97;73.82;100889.29;111301;241;38464;-69
2024/01/07 09:00:32;;;;;;;9.30;6.70;;;;;;;-5.85;73.57;100893.27;111185;241;175287;-69
2024/01/07 09:03:10;;;;;;;9.10;6.90;;;;;;;-5.73;73.26;100898.82;111301;241;38387;-68
2024/01/07 09:05:45;;;;;;;8.90;6.80;;;;;;;-5.65;72.79;100894.81;111306;241;38386;-69
2024/01/07 09:08:24;;;;;;;10.40;8.20;;;;;;;-5.62;72.66;100896.98;111331;241;38476;-69
2024/01/07 09:11:00;;;;;;;10.10;7.80;;;;;;;-5.61;72.09;100898.71;111341;241;38229;-68
2024/01/07 09:13:39;;;;;;;11.60;8.70;;;;;;;-5.60;72.55;100900.29;111328;241;38660;-69
2024/01/07 09:16:18;;;;;;;11.50;8.40;;;;;;;-5.55;72.71;100903.36;111355;241;38567;-69
2024/01/07 09:18:57;;;;;;;10.40;8.20;;;;;;;-5.59;71.90;100901.70;111360;241;38514;-69
2024/01/07 09:21:40;;;;;;;12.50;8.80;;;;;;;-5.65;71.63;100903.00;111352;241;38435;-68
2024/01/07 09:24:15;;;;;;;10.70;8.70;;;;;;;-5.72;71.88;100901.71;111331;241;38291;-68
2024/01/07 09:26:52;;;;;;;10.30;8.00;;;;;;;-5.74;72.26;100901.34;111371;241;39627;-68
2024/01/07 09:29:36;;;;;;;10.60;8.70;;;;;;;-5.78;71.95;100903.06;111338;241;38432;-68
2024/01/07 09:32:15;;;;;;;11.00;8.70;;;;;;;-5.81;72.19;100901.23;111348;241;39751;-68
2024/01/07 09:34:53;;;;;;;11.10;8.90;;;;;;;-5.81;72.36;100898.67;111336;241;38311;-68
2024/01/07 09:37:28;;;;;;;18.10;10.80;;;;;;;-5.82;72.54;100897.96;111362;241;38621;-70
2024/01/07 09:40:06;;;;;;;21.70;12.30;;;;;;;-5.83;72.32;100896.58;111311;241;38422;-68
2024/01/07 09:42:43;;;;;;;15.50;9.20;;;;;;;-5.88;72.02;100895.19;111386;241;38325;-68
2024/01/07 09:45:19;;;;;;;12.90;8.30;;;;;;;-5.91;71.79;100895.63;111184;241;176297;-68
2024/01/07 09:47:55;;;;;;;14.40;8.90;;;;;;;-5.91;71.46;100893.23;111308;241;38631;-68
2024/01/07 09:50:33;;;;;;;13.50;9.10;;;;;;;-5.89;71.86;100888.02;111194;241;176323;-68
2024/01/07 09:53:16;;;;;;;11.80;8.60;;;;;;;-5.87;72.08;100886.91;111345;241;38421;-68
2024/01/07 09:55:58;;;;;;;21.20;13.60;;;;;;;-5.88;71.67;100888.41;111255;241;39469;-69
2024/01/07 09:58:36;;;;;;;22.10;13.80;;;;;;;-5.90;71.65;100891.74;111361;241;39041;-68
2024/01/07 10:01:12;;;;;;;16.40;10.30;;;;;;;-5.90;71.72;100900.23;111255;241;38252;-68
2024/01/07 10:03:48;;;;;;;14.80;10.50;;;;;;;-5.97;71.40;100889.46;111283;241;38251;-68
2024/01/07 10:06:25;;;;;;;13.50;10.20;;;;;;;-6.00;71.85;100888.52;111291;241;38476;-68
2024/01/07 10:09:01;;;;;;;23.70;13.30;;;;;;;-6.00;71.73;100891.58;111227;241;38465;-68
2024/01/07 10:11:37;;;;;;;25.60;12.70;;;;;;;-6.03;71.85;100888.75;111301;241;38558;-69
2024/01/07 10:14:17;;;;;;;13.70;9.00;;;;;;;-6.00;72.04;100889.02;111260;241;38333;-68
2024/01/07 10:16:55;;;;;;;14.40;9.40;;;;;;;-5.93;71.90;100886.38;111266;241;37909;-69
2024/01/07 10:19:34;;;;;;;12.70;9.80;;;;;;;-5.84;72.20;100887.68;111268;241;38296;-69
2024/01/07 10:22:09;;;;;;;16.40;10.10;;;;;;;-5.78;71.76;100887.23;111258;241;38337;-69
2024/01/07 10:24:48;;;;;;;20.80;12.20;;;;;;;-5.80;71.69;100888.71;111268;241;38374;-69
2024/01/07 10:27:29;;;;;;;12.90;9.50;;;;;;;-5.76;71.96;100884.93;111256;241;38336;-69
2024/01/07 10:30:04;;;;;;;21.80;12.30;;;;;;;-5.77;71.78;100882.17;111221;241;39194;-69
2024/01/07 10:32:43;;;;;;;25.60;13.70;;;;;;;-5.78;71.34;100887.92;111270;241;38257;-68
2024/01/07 10:35:18;;;;;;;37.50;19.10;;;;;;;-5.80;71.59;100884.45;111219;241;38298;-67
2024/01/07 10:37:53;;;;;;;17.90;11.00;;;;;;;-5.78;72.01;100884.50;111300;241;38383;-70
2024/01/07 10:40:29;;;;;;;25.00;14.40;;;;;;;-5.75;72.06;100883.79;111262;241;38258;-69
2024/01/07 10:43:03;;;;;;;12.90;10.10;;;;;;;-5.76;72.14;100882.75;111250;241;38384;-69
2024/01/07 10:45:42;;;;;;;18.60;10.40;;;;;;;-5.75;71.96;100883.80;111278;241;38455;-69
2024/01/07 10:48:30;;;;;;;13.00;9.30;;;;;;;-5.73;71.67;100880.95;111210;241;38316;-68
2024/01/07 10:51:13;;;;;;;13.00;9.30;;;;;;;-5.73;71.70;100885.03;111271;241;38622;-69
2024/01/07 10:53:54;;;;;;;13.00;9.10;;;;;;;-5.69;71.82;100885.00;111289;241;39278;-69
2024/01/07 10:56:34;;;;;;;13.40;10.10;;;;;;;-5.72;71.77;100886.77;111249;241;39470;-68
2024/01/07 10:59:10;;;;;;;13.20;10.50;;;;;;;-5.72;71.70;100894.25;111247;241;39069;-69
2024/01/07 11:01:46;;;;;;;13.80;10.30;;;;;;;-5.75;71.56;100891.79;111284;241;38494;-69
2024/01/07 11:04:30;;;;;;;17.70;11.00;;;;;;;-5.79;71.59;100889.59;111287;241;38514;-69
2024/01/07 11:07:16;;;;;;;13.10;10.40;;;;;;;-5.83;71.57;100892.34;111235;241;38931;-69
2024/01/07 11:10:01;;;;;;;15.60;11.60;;;;;;;-5.87;71.75;100886.56;111124;241;176275;-69
2024/01/07 11:12:39;;;;;;;14.20;10.80;;;;;;;-5.90;71.53;100892.74;111285;241;38251;-69
2024/01/07 11:15:22;;;;;;;12.30;10.10;;;;;;;-5.96;71.59;100887.95;111290;241;39136;-69
2024/01/07 11:18:00;;;;;;;13.00;8.70;;;;;;;-5.97;71.52;100887.08;111286;241;38280;-69
2024/01/07 11:20:41;;;;;;;13.20;9.20;;;;;;;-5.93;71.58;100886.71;111314;241;38311;-68
2024/01/07 11:23:32;;;;;;;14.10;9.90;;;;;;;-5.89;71.67;100890.25;111294;241;38298;-68
2024/01/07 11:26:09;;;;;;;12.30;9.90;;;;;;;-5.83;71.75;100889.25;111347;241;38266;-68
2024/01/07 11:28:55;;;;;;;13.40;10.20;;;;;;;-5.82;71.65;100891.17;111322;241;38581;-69
2024/01/07 11:31:50;;;;;;;13.20;10.00;;;;;;;-5.85;71.38;100891.58;111311;241;38803;-69
2024/01/07 11:34:49;;;;;;;14.60;10.30;;;;;;;-5.86;71.51;100892.89;111249;241;39475;-69
2024/01/07 11:37:26;;;;;;;13.10;9.90;;;;;;;-5.87;71.47;100890.27;111324;241;38299;-69
2024/01/07 11:40:11;;;;;;;14.30;10.00;;;;;;;-5.88;71.57;100885.02;111349;241;38807;-68
2024/01/07 11:42:51;;;;;;;13.00;10.80;;;;;;;-5.91;71.32;100885.08;111304;241;38571;-69
2024/01/07 11:45:29;;;;;;;13.90;10.10;;;;;;;-5.94;71.43;100881.75;111324;241;38822;-69
2024/01/07 11:48:04;;;;;;;13.80;9.10;;;;;;;-5.91;71.48;100884.56;111348;241;40011;-68
2024/01/07 11:50:47;;;;;;;10.80;7.70;;;;;;;-5.86;71.59;100891.36;111317;241;38781;-68
2024/01/07 11:53:22;;;;;;;10.90;7.90;;;;;;;-5.82;70.97;100896.09;111254;241;38389;-69
2024/01/07 11:55:58;;;;;;;11.70;9.10;;;;;;;-5.83;70.87;100894.17;111340;241;38460;-69
2024/01/07 11:58:36;;;;;;;10.40;8.50;;;;;;;-5.85;70.75;100894.81;111287;241;38439;-68
2024/01/07 12:01:11;;;;;;;16.40;9.50;;;;;;;-5.89;70.52;100892.80;111219;241;176374;-68